KPBIKNQX

Guest
Details From KPBI - Palm Beach Intl
To KNQX - Key West NAS
Flight Number -
Tags generated
Created
Modified
Stats Distance 153 nm / 284 km
Max Altitude 14,500 ft / 4,420 m
Waypoints 3
Social Downloads 1
Likes 0
Share VATSIM

Download

Looking for another format? Having issues loading an existing format? Contact us
Advertisement - Login to hide

Notes

Basic altitude profile: - Ascent Rate: 2500ft/min - Ascent Speed: 250kts - Cruise Altitude: 35000ft - Cruise Speed: 420kts - Descent Rate: 1500ft/min - Descent Speed: 250kts Options: - Use NATs: yes - Use PACOTS: yes - Use low airways: yes - Use high airways: yes

Route

KPBI DVALL KNQX

ID Type Via Altitude Latitude Longitude Leg Dist Tot Dist Heading (true) Name
O KPBI APT - 0 ft / 0 m 26.68286˚ -80.09700˚ - 0 nm - Palm Beach Intl
DVALL FIX - 14,500 ft / 4,420 m 25.51469˚ -80.99896˚ 85 nm 85 nm 215° / 215° -
O KNQX APT - 0 ft / 0 m 24.57438˚ -81.68681˚ 67 nm 153 nm 214° / 213° Key West NAS

Altitude Profile

Advertisement - Login to hide

KPBI

Details ICAO KPBI (PBI)
Name Palm Beach Intl
Region United States
Timezone America/New_York (UTC-5.0)
Stats Elevation 19 ft / 6 m (AMSL)
Location 26.682862° -80.096996°
Runways 3
Magnetic Variation 6.893° W

METAR

KPBI 140053Z 28004KT 10SM CLR 11/05 A3009 RMK AO2 SLP190 T01060050

Decode

TAF

TAF KPBI 132334Z 1400/1424 VRB05KT P6SM FEW250 FM140200 VRB02KT P6SM FEW250 FM141400 VRB05KT P6SM FEW250

Decode

Departure Runways

ID Width Length Bearing (true) Bearing (mag) Surface Threshold Offset Overrun Length
10L 150 ft / 46 m 9,993 ft / 3,046 m 92.79° 99.68° Asphalt 1,200 ft / 366 m 0 ft / 0 m
10R 75 ft / 23 m 3,208 ft / 978 m 92.79° 99.68° Asphalt 0 ft / 0 m 0 ft / 0 m
14 150 ft / 46 m 6,939 ft / 2,115 m 135.33° 142.22° Asphalt 0 ft / 0 m 0 ft / 0 m
28L 75 ft / 23 m 3,208 ft / 978 m 272.79° 279.68° Asphalt 0 ft / 0 m 0 ft / 0 m
28R 150 ft / 46 m 9,993 ft / 3,046 m 272.80° 279.69° Asphalt 811 ft / 247 m 0 ft / 0 m
32 150 ft / 46 m 6,939 ft / 2,115 m 315.34° 322.23° Asphalt 428 ft / 130 m 0 ft / 0 m

KNQX

Details ICAO KNQX (NQX)
Name Key West NAS
Region United States
Timezone America/New_York (UTC-5.0)
Stats Elevation 6 ft / 2 m (AMSL)
Location 24.574382° -81.686809°
Runways 3
Magnetic Variation 5.593° W

METAR

KNQX 140053Z 35006KT 10SM FEW025 17/12 A3011 RMK AO2 SLP196 T01670122 $

Decode

TAF

Not found

Destination Runways

ID Width Length Bearing (true) Bearing (mag) Surface Threshold Offset Overrun Length
03 150 ft / 46 m 7,019 ft / 2,140 m 31.33° 36.92° Asphalt 0 ft / 0 m 950 ft / 290 m
07 200 ft / 61 m 9,991 ft / 3,045 m 72.90° 78.49° Asphalt 0 ft / 0 m 965 ft / 294 m
13 150 ft / 46 m 7,007 ft / 2,136 m 131.01° 136.60° Asphalt 0 ft / 0 m 718 ft / 219 m
21 150 ft / 46 m 7,019 ft / 2,140 m 211.33° 216.92° Asphalt 0 ft / 0 m 690 ft / 210 m
25 200 ft / 61 m 9,991 ft / 3,045 m 252.91° 258.50° Asphalt 0 ft / 0 m 1,000 ft / 305 m
31 150 ft / 46 m 7,007 ft / 2,136 m 311.01° 316.60° Asphalt 0 ft / 0 m 712 ft / 217 m